createdAt,value
2023-04-11T00:01:00.670Z,99961.38
2023-04-11T00:03:03.753Z,99966.25
2023-04-11T00:05:07.560Z,99958.63
2023-04-11T00:07:11.009Z,99960.53
2023-04-11T00:09:13.884Z,99960.22
2023-04-11T00:11:16.665Z,99956.69
2023-04-11T00:13:20.017Z,99961.56
2023-04-11T00:15:27.085Z,99959.94
2023-04-11T00:17:31.749Z,99962.34
2023-04-11T00:19:34.701Z,99965.59
2023-04-11T00:21:40.277Z,99970.22
2023-04-11T00:23:43.159Z,99954.38
2023-04-11T00:25:45.880Z,99965.81
2023-04-11T00:27:48.767Z,99969.63
2023-04-11T00:29:53.171Z,99960.34
2023-04-11T00:31:57.016Z,99962.25
2023-04-11T00:33:59.756Z,99953.78
2023-04-11T00:36:02.500Z,99966.31
2023-04-11T00:38:05.694Z,99964.94
2023-04-11T00:40:09.141Z,99957.25
2023-04-11T00:42:11.958Z,99966.22
2023-04-11T00:44:15.064Z,99962.41
2023-04-11T00:46:18.822Z,99961.28
2023-04-11T00:48:21.617Z,99966.38
2023-04-11T00:50:25.404Z,99961.22
2023-04-11T00:52:28.168Z,99972.59
2023-04-11T00:54:31.509Z,99962.50
2023-04-11T00:56:34.518Z,99972.53
2023-04-11T00:58:38.687Z,99966.84
2023-04-11T01:00:41.652Z,99969.22
2023-04-11T01:02:45.527Z,99967.56
2023-04-11T01:04:48.728Z,99975.38
2023-04-11T01:06:54.612Z,99969.38
2023-04-11T01:08:57.798Z,99967.75
2023-04-11T01:11:02.424Z,99969.63
2023-04-11T01:13:05.308Z,99959.00
2023-04-11T01:15:08.296Z,99976.09
2023-04-11T01:17:12.842Z,99966.59
2023-04-11T01:19:21.888Z,99969.78
2023-04-11T01:21:27.247Z,99963.75
2023-04-11T01:23:30.099Z,99971.34
2023-04-11T01:25:33.009Z,99971.84
2023-04-11T01:27:37.102Z,99972.09
2023-04-11T01:29:39.802Z,99966.94
2023-04-11T01:31:42.436Z,99969.88
2023-04-11T01:33:53.803Z,99937.69
2023-04-11T01:35:56.575Z,99969.03
2023-04-11T01:37:59.493Z,99969.53
2023-04-11T01:40:02.566Z,99959.19
2023-04-11T01:42:07.251Z,99965.94
2023-04-11T01:44:09.929Z,99973.50
2023-04-11T01:46:14.143Z,99962.94
2023-04-11T01:48:17.183Z,99970.78
2023-04-11T01:50:20.822Z,99969.72
2023-04-11T01:52:23.525Z,99967.00
2023-04-11T01:54:26.268Z,99970.78
2023-04-11T01:56:28.977Z,99976.47
2023-04-11T01:58:31.575Z,99974.25
2023-04-11T02:00:37.153Z,99965.25
2023-04-11T02:02:40.085Z,99973.19
2023-04-11T02:04:42.960Z,99974.25
2023-04-11T02:06:45.739Z,99979.19
2023-04-11T02:08:48.361Z,99978.66
2023-04-11T02:10:51.203Z,99970.03
2023-04-11T02:12:53.906Z,99975.50
2023-04-11T02:14:56.583Z,99986.41
2023-04-11T02:16:59.223Z,99985.09
2023-04-11T02:19:03.768Z,99978.59
2023-04-11T02:21:06.595Z,99974.81
2023-04-11T02:23:09.342Z,99977.25
2023-04-11T02:25:12.027Z,99978.34
2023-04-11T02:27:15.177Z,99974.28
2023-04-11T02:29:17.734Z,99979.19
2023-04-11T02:31:21.268Z,99974.59
2023-04-11T02:33:24.404Z,99978.16
2023-04-11T02:35:27.035Z,99976.28
2023-04-11T02:37:29.660Z,99968.47
2023-04-11T02:39:32.233Z,99970.34
2023-04-11T02:41:34.861Z,99973.09
2023-04-11T02:43:37.573Z,99976.94
2023-04-11T02:45:40.231Z,99980.00
2023-04-11T02:47:43.061Z,99971.56
2023-04-11T02:49:45.845Z,99975.16
2023-04-11T02:51:48.389Z,99976.53
2023-04-11T02:53:52.366Z,99976.84
2023-04-11T02:55:55.031Z,99971.47
2023-04-11T02:57:57.768Z,99979.09
2023-04-11T03:00:00.473Z,99981.03
2023-04-11T03:02:03.216Z,99980.25
2023-04-11T03:04:07.470Z,99983.81
2023-04-11T03:06:10.585Z,99983.06
2023-04-11T03:08:13.258Z,99980.38
2023-04-11T03:10:16.016Z,99976.88
2023-04-11T03:12:20.265Z,99985.34
2023-04-11T03:14:22.904Z,99978.84
2023-04-11T03:16:28.335Z,99982.44
2023-04-11T03:18:30.996Z,99984.38
2023-04-11T03:20:33.992Z,99982.50
2023-04-11T03:22:36.595Z,99978.75
2023-04-11T03:24:42.220Z,99984.22
2023-04-11T03:26:44.857Z,99989.94
2023-04-11T03:28:47.517Z,99987.81
2023-04-11T03:30:50.717Z,99987.28
2023-04-11T03:32:54.788Z,99986.22
2023-04-11T03:35:00.856Z,99989.53
2023-04-11T03:37:03.844Z,99993.34
2023-04-11T03:39:06.545Z,99992.06
2023-04-11T03:41:09.184Z,99995.59
2023-04-11T03:43:11.941Z,99977.69
2023-04-11T03:45:14.629Z,99989.69
2023-04-11T03:47:17.217Z,99988.34
2023-04-11T03:49:19.876Z,99984.84
2023-04-11T03:51:22.530Z,99989.19
2023-04-11T03:53:25.170Z,99994.38
2023-04-11T03:55:27.858Z,99984.63
2023-04-11T03:57:30.623Z,99986.53
2023-04-11T03:59:33.237Z,99990.38
2023-04-11T04:01:38.325Z,99984.69
2023-04-11T04:03:41.509Z,99992.59
2023-04-11T04:05:44.321Z,99995.00
2023-04-11T04:07:46.983Z,99991.22
2023-04-11T04:09:49.724Z,99996.97
2023-04-11T04:11:52.481Z,99995.06
2023-04-11T04:13:55.760Z,99994.78
2023-04-11T04:16:01.231Z,99996.97
2023-04-11T04:18:05.668Z,100001.31
2023-04-11T04:20:11.106Z,99993.16
2023-04-11T04:22:13.835Z,99991.53
2023-04-11T04:24:16.625Z,99982.53
2023-04-11T04:26:25.212Z,99991.78
2023-04-11T04:28:29.367Z,99986.06
2023-04-11T04:30:31.985Z,100000.22
2023-04-11T04:32:34.853Z,99995.03
2023-04-11T04:34:49.725Z,99998.28
2023-04-11T04:36:56.651Z,100002.34
2023-04-11T04:39:02.351Z,100000.41
2023-04-11T04:41:06.269Z,100007.22
2023-04-11T04:43:11.748Z,100007.16
2023-04-11T04:45:14.443Z,100004.94
2023-04-11T04:47:17.804Z,100007.16
2023-04-11T04:49:20.652Z,99997.84
2023-04-11T04:51:23.268Z,100007.63
2023-04-11T04:53:26.214Z,99996.97
2023-04-11T04:55:29.088Z,100002.38
2023-04-11T04:57:32.355Z,99995.53
2023-04-11T04:59:35.075Z,99997.41
2023-04-11T05:01:40.255Z,100000.59
2023-04-11T05:03:44.852Z,100008.44
2023-04-11T05:05:47.624Z,100004.81
2023-04-11T05:07:50.238Z,100009.38
2023-04-11T05:09:52.909Z,100006.06
2023-04-11T05:12:02.466Z,100005.97
2023-04-11T05:14:05.290Z,100008.91
2023-04-11T05:16:08.645Z,100016.19
2023-04-11T05:18:11.403Z,100009.28
2023-04-11T05:20:15.548Z,100005.41
2023-04-11T05:22:18.138Z,100020.94
2023-04-11T05:24:20.811Z,100017.63
2023-04-11T05:26:23.410Z,100013.97
2023-04-11T05:28:26.268Z,100009.81
2023-04-11T05:30:28.998Z,100015.41
2023-04-11T05:32:31.725Z,100011.28
2023-04-11T05:34:34.672Z,100006.28
2023-04-11T05:36:37.300Z,100012.75
2023-04-11T05:38:43.706Z,100010.47
2023-04-11T05:40:46.510Z,100012.84
2023-04-11T05:42:49.178Z,100006.19
2023-04-11T05:44:51.874Z,100003.63
2023-04-11T05:46:54.564Z,100004.44
2023-04-11T05:49:01.123Z,100007.97
2023-04-11T05:51:04.118Z,100001.09
2023-04-11T05:53:07.037Z,100003.34
2023-04-11T05:55:10.108Z,100001.69
2023-04-11T05:57:12.756Z,100002.06
2023-04-11T05:59:17.484Z,100003.97
2023-04-11T06:01:22.420Z,100005.16
2023-04-11T06:03:25.249Z,100006.91
2023-04-11T06:05:31.726Z,100011.16
2023-04-11T06:07:36.162Z,100004.28
2023-04-11T06:09:42.301Z,100007.22
2023-04-11T06:11:45.378Z,100001.38
2023-04-11T06:13:48.103Z,100005.53
2023-04-11T06:15:51.025Z,100002.19
2023-04-11T06:17:54.454Z,100002.41
2023-04-11T06:19:57.193Z,100004.56
2023-04-11T06:21:59.794Z,100000.84
2023-04-11T06:24:10.117Z,100002.03
2023-04-11T06:26:12.824Z,99993.63
2023-04-11T06:28:15.988Z,99997.84
2023-04-11T06:30:18.772Z,100000.19
2023-04-11T06:32:22.344Z,99992.06
2023-04-11T06:34:24.972Z,99996.06
2023-04-11T06:36:27.971Z,100001.34
2023-04-11T06:38:30.808Z,99990.88
2023-04-11T06:40:33.398Z,99998.72
2023-04-11T06:42:36.157Z,99989.97
2023-04-11T06:44:38.922Z,99992.31
2023-04-11T06:46:41.792Z,99986.22
2023-04-11T06:48:47.263Z,99991.00
2023-04-11T06:50:50.033Z,99988.06
2023-04-11T06:52:52.784Z,99987.34
2023-04-11T06:54:55.427Z,99981.84
2023-04-11T06:56:58.026Z,99976.19
2023-04-11T06:59:01.656Z,99986.63
2023-04-11T07:01:04.684Z,99988.13
2023-04-11T07:03:08.724Z,99988.47
2023-04-11T07:05:12.234Z,99985.84
2023-04-11T07:07:14.968Z,99992.53
2023-04-11T07:09:17.619Z,99975.44
2023-04-11T07:11:20.619Z,99992.19
2023-04-11T07:13:23.256Z,99986.31
2023-04-11T07:15:25.983Z,99983.44
2023-04-11T07:17:28.691Z,99990.88
2023-04-11T07:19:31.366Z,99981.31
2023-04-11T07:21:34.231Z,99979.63
2023-04-11T07:23:36.890Z,99980.84
2023-04-11T07:25:39.613Z,99985.56
2023-04-11T07:27:43.946Z,99971.28
2023-04-11T07:29:46.772Z,99973.28
2023-04-11T07:31:49.973Z,99973.28
2023-04-11T07:33:52.579Z,99968.75
2023-04-11T07:35:55.352Z,99978.47
2023-04-11T07:37:58.503Z,99975.22
2023-04-11T07:40:01.158Z,99967.09
2023-04-11T07:42:05.986Z,99971.94
2023-04-11T07:44:09.770Z,99966.88
2023-04-11T07:46:15.353Z,99966.81
2023-04-11T07:48:18.231Z,99969.56
2023-04-11T07:50:21.095Z,99969.28
2023-04-11T07:52:23.780Z,99968.34
2023-04-11T07:54:28.734Z,99964.53
2023-04-11T07:56:31.461Z,99959.69
2023-04-11T07:58:34.114Z,99958.91
2023-04-11T08:00:36.908Z,99958.44
2023-04-11T08:02:39.787Z,99960.94
2023-04-11T08:04:42.577Z,99959.31
2023-04-11T08:06:45.299Z,99958.25
2023-04-11T08:08:49.040Z,99958.09
2023-04-11T08:10:52.363Z,99953.28
2023-04-11T08:12:56.304Z,99950.84
2023-04-11T08:14:59.101Z,99953.13
2023-04-11T08:17:02.166Z,99943.72
2023-04-11T08:19:05.009Z,99948.41
2023-04-11T08:21:08.347Z,99948.13
2023-04-11T08:23:11.583Z,99945.53
2023-04-11T08:25:15.106Z,99947.47
2023-04-11T08:27:17.836Z,99940.19
2023-04-11T08:29:20.682Z,99938.53
2023-04-11T08:31:23.389Z,99944.88
2023-04-11T08:33:27.758Z,99929.81
2023-04-11T08:35:30.593Z,99938.41
2023-04-11T08:37:33.433Z,99933.69
2023-04-11T08:39:36.304Z,99931.91
2023-04-11T08:41:39.046Z,99924.59
2023-04-11T08:43:41.880Z,99925.09
2023-04-11T08:45:44.783Z,99928.16
2023-04-11T08:47:47.644Z,99926.72
2023-04-11T08:49:50.900Z,99915.81
2023-04-11T08:51:54.628Z,99913.56
2023-04-11T08:54:01.685Z,99908.38
2023-04-11T08:56:04.451Z,99908.72
2023-04-11T08:58:07.153Z,99902.56
2023-04-11T09:00:19.283Z,99901.88
2023-04-11T09:02:23.001Z,99898.78
2023-04-11T09:04:43.348Z,99901.50
2023-04-11T09:07:12.388Z,99897.28
2023-04-11T09:09:30.069Z,99895.66
2023-04-11T09:11:52.645Z,99901.34
2023-04-11T09:14:11.670Z,99897.59
2023-04-11T09:16:14.803Z,99893.69
2023-04-11T09:18:44.672Z,99899.53
2023-04-11T09:21:02.767Z,99890.41
2023-04-11T09:23:05.582Z,99887.63
2023-04-11T09:25:08.702Z,99881.53
2023-04-11T09:27:14.149Z,99882.13
2023-04-11T09:29:43.733Z,99874.41
2023-04-11T09:31:46.737Z,99875.47
2023-04-11T09:33:54.843Z,99875.88
2023-04-11T09:35:58.084Z,99870.09
2023-04-11T09:38:03.486Z,99870.09
2023-04-11T09:40:06.962Z,99858.38
2023-04-11T09:42:38.795Z,99856.31
2023-04-11T09:44:41.553Z,99851.69
2023-04-11T09:46:57.926Z,99854.28
2023-04-11T09:49:03.645Z,99853.50
2023-04-11T09:51:09.663Z,99841.38
2023-04-11T09:53:12.776Z,99846.50
2023-04-11T09:55:18.762Z,99845.44
2023-04-11T09:57:25.606Z,99836.59
2023-04-11T09:59:30.137Z,99837.75
2023-04-11T10:01:33.434Z,99836.47
2023-04-11T10:03:40.345Z,99833.75
2023-04-11T10:05:43.573Z,99822.22
2023-04-11T10:08:08.129Z,99822.06
2023-04-11T10:10:16.017Z,99822.13
2023-04-11T10:12:34.319Z,99823.44
2023-04-11T10:14:37.028Z,99818.75
2023-04-11T10:17:19.718Z,99817.50
2023-04-11T10:19:25.167Z,99816.81
2023-04-11T10:21:30.959Z,99809.22
2023-04-11T10:24:14.801Z,99808.97
2023-04-11T10:26:19.147Z,99811.53
2023-04-11T10:28:36.163Z,99804.47
2023-04-11T10:30:41.667Z,99797.00
2023-04-11T10:33:09.889Z,99801.63
2023-04-11T10:35:18.467Z,99795.16
2023-04-11T10:37:30.103Z,99793.78
2023-04-11T10:39:53.940Z,99794.81
2023-04-11T10:42:35.004Z,99788.94
2023-04-11T10:44:37.744Z,99785.72
2023-04-11T10:46:49.658Z,99773.38
2023-04-11T10:48:59.887Z,99771.78
2023-04-11T10:51:23.466Z,99764.94
2023-04-11T10:53:37.265Z,99762.13
2023-04-11T10:55:51.247Z,99758.19
2023-04-11T10:58:10.906Z,99759.19
2023-04-11T11:00:16.054Z,99755.56
2023-04-11T11:02:20.146Z,99747.78
2023-04-11T11:04:32.935Z,99759.72
2023-04-11T11:06:46.145Z,99743.41
2023-04-11T11:08:50.272Z,99738.13
2023-04-11T11:10:52.839Z,99734.66
2023-04-11T11:12:56.244Z,99745.78
2023-04-11T11:14:58.842Z,99739.72
2023-04-11T11:17:03.272Z,99726.16
2023-04-11T11:19:06.648Z,99725.41
2023-04-11T11:21:14.166Z,99732.03
2023-04-11T11:23:19.852Z,99728.69
2023-04-11T11:25:22.601Z,99723.56
2023-04-11T11:27:25.408Z,99722.94
2023-04-11T11:29:35.853Z,99726.63
2023-04-11T11:31:46.637Z,99721.06
2023-04-11T11:33:49.347Z,99714.31
2023-04-11T11:35:53.767Z,99709.16
2023-04-11T11:37:56.603Z,99707.50
2023-04-11T11:39:59.351Z,99712.34
2023-04-11T11:42:02.349Z,99705.81
2023-04-11T11:44:05.994Z,99704.53
2023-04-11T11:46:15.306Z,99703.50
2023-04-11T11:48:23.434Z,99699.06
2023-04-11T11:50:31.292Z,99708.69
2023-04-11T11:52:34.644Z,99694.38
2023-04-11T11:54:45.133Z,99695.13
2023-04-11T11:56:55.200Z,99682.22
2023-04-11T11:58:58.469Z,99683.03
2023-04-11T12:01:01.452Z,99670.59
2023-04-11T12:03:05.617Z,99667.88
2023-04-11T12:05:16.215Z,99671.75
2023-04-11T12:07:23.047Z,99665.28
2023-04-11T12:09:32.122Z,99669.31
2023-04-11T12:11:42.626Z,99650.72
2023-04-11T12:13:46.315Z,99648.34
2023-04-11T12:15:55.159Z,99648.47
2023-04-11T12:17:58.098Z,99645.50
2023-04-11T12:20:01.998Z,99643.13
2023-04-11T12:22:06.144Z,99636.44
2023-04-11T12:24:10.139Z,99632.47
2023-04-11T12:26:13.759Z,99631.44
2023-04-11T12:28:16.620Z,99630.09
2023-04-11T12:30:19.327Z,99626.13
2023-04-11T12:32:23.572Z,99624.53
2023-04-11T12:34:26.332Z,99618.78
2023-04-11T12:36:29.859Z,99626.00
2023-04-11T12:38:33.521Z,99615.75
2023-04-11T12:40:36.421Z,99605.09
2023-04-11T12:42:53.249Z,99603.63
2023-04-11T12:44:58.286Z,99606.88
2023-04-11T12:47:00.987Z,99609.31
2023-04-11T12:49:03.714Z,99606.91
2023-04-11T12:51:06.680Z,99596.16
2023-04-11T12:53:09.319Z,99595.41
2023-04-11T12:55:13.541Z,99592.69
2023-04-11T12:57:16.399Z,99592.28
2023-04-11T12:59:19.073Z,99588.66
2023-04-11T13:01:23.762Z,99584.59
2023-04-11T13:03:27.590Z,99590.59
2023-04-11T13:05:31.039Z,99593.34
2023-04-11T13:07:35.282Z,99585.28
2023-04-11T13:09:38.485Z,99583.91
2023-04-11T13:11:42.387Z,99580.13
2023-04-11T13:13:45.356Z,99583.53
2023-04-11T13:15:47.986Z,99580.28
2023-04-11T13:17:51.905Z,99583.00
2023-04-11T13:19:55.868Z,99577.75
2023-04-11T13:21:58.696Z,99580.81
2023-04-11T13:24:01.352Z,99585.00
2023-04-11T13:26:04.075Z,99578.69
2023-04-11T13:28:07.986Z,99576.38
2023-04-11T13:30:12.039Z,99574.19
2023-04-11T13:32:14.928Z,99569.63
2023-04-11T13:34:18.606Z,99571.38
2023-04-11T13:36:22.498Z,99569.09
2023-04-11T13:38:26.171Z,99571.91
2023-04-11T13:40:28.779Z,99563.22
2023-04-11T13:42:31.571Z,99555.91
2023-04-11T13:44:34.240Z,99558.88
2023-04-11T13:46:37.373Z,99560.06
2023-04-11T13:48:40.183Z,99553.34
2023-04-11T13:50:42.820Z,99550.72
2023-04-11T13:52:45.525Z,99547.28
2023-04-11T13:54:48.156Z,99549.34
2023-04-11T13:56:51.224Z,99552.13
2023-04-11T13:58:53.768Z,99546.88
2023-04-11T14:00:56.357Z,99543.38
2023-04-11T14:05:27.154Z,99549.03
2023-04-11T14:07:30.018Z,99549.06
2023-04-11T14:09:32.719Z,99545.84
2023-04-11T14:11:35.846Z,99542.28
2023-04-11T14:13:38.474Z,99543.06
2023-04-11T14:15:41.163Z,99540.66
2023-04-11T14:17:44.336Z,99539.44
2023-04-11T14:19:47.018Z,99532.66
2023-04-11T14:21:50.836Z,99534.22
2023-04-11T14:23:53.608Z,99528.53
2023-04-11T14:25:56.941Z,99531.66
2023-04-11T14:27:59.657Z,99537.16
2023-04-11T14:30:02.231Z,99526.75
2023-04-11T14:32:07.647Z,99533.22
2023-04-11T14:34:10.335Z,99527.69
2023-04-11T14:36:12.959Z,99529.66
2023-04-11T14:38:16.121Z,99528.78
2023-04-11T14:40:18.921Z,99526.72
2023-04-11T14:42:21.672Z,99526.69
2023-04-11T14:44:24.404Z,99524.34
2023-04-11T14:46:27.746Z,99524.78
2023-04-11T14:48:30.706Z,99528.44
2023-04-11T14:50:33.308Z,99524.03
2023-04-11T14:52:36.056Z,99525.22
2023-04-11T14:54:38.700Z,99522.72
2023-04-11T14:56:41.621Z,99521.91
2023-04-11T14:58:44.326Z,99517.03
2023-04-11T15:00:47.002Z,99524.91
2023-04-11T15:02:54.670Z,99523.25
2023-04-11T15:04:57.685Z,99521.00
2023-04-11T15:07:00.360Z,99525.22
2023-04-11T15:09:04.917Z,99519.78
2023-04-11T15:11:08.437Z,99516.97
2023-04-11T15:13:12.076Z,99521.06
2023-04-11T15:15:15.223Z,99520.56
2023-04-11T15:17:18.000Z,99529.59
2023-04-11T15:19:20.803Z,99525.19
2023-04-11T15:21:23.424Z,99529.88
2023-04-11T15:23:26.764Z,99526.53
2023-04-11T15:25:29.473Z,99523.16
2023-04-11T15:27:32.117Z,99527.03
2023-04-11T15:29:36.551Z,99528.78
2023-04-11T15:31:39.280Z,99538.72
2023-04-11T15:33:42.104Z,99541.13
2023-04-11T15:35:46.085Z,99526.75
2023-04-11T15:37:48.860Z,99534.19
2023-04-11T15:39:51.721Z,99532.84
2023-04-11T15:41:54.308Z,99529.09
2023-04-11T15:43:57.136Z,99531.84
2023-04-11T15:46:03.528Z,99525.44
2023-04-11T15:48:06.985Z,99530.50
2023-04-11T15:50:10.162Z,99535.06
2023-04-11T15:52:12.837Z,99524.34
2023-04-11T15:54:15.612Z,99525.50
2023-04-11T15:56:19.899Z,99531.38
2023-04-11T15:58:22.752Z,99532.28
2023-04-11T16:00:27.419Z,99535.25
2023-04-11T16:02:30.178Z,99533.00
2023-04-11T16:04:35.598Z,99533.91
2023-04-11T16:06:38.399Z,99529.41
2023-04-11T16:08:41.213Z,99533.81
2023-04-11T16:10:44.115Z,99538.53
2023-04-11T16:12:46.888Z,99530.69
2023-04-11T16:14:49.526Z,99536.16
2023-04-11T16:16:53.107Z,99522.28
2023-04-11T16:18:56.047Z,99528.09
2023-04-11T16:20:58.708Z,99523.56
2023-04-11T16:23:01.474Z,99520.25
2023-04-11T16:25:07.597Z,99520.44
2023-04-11T16:27:10.578Z,99516.13
2023-04-11T16:29:13.281Z,99523.00
2023-04-11T16:31:22.032Z,99516.72
2023-04-11T16:33:24.768Z,99520.38
2023-04-11T16:35:27.473Z,99529.28
2023-04-11T16:37:30.419Z,99521.53
2023-04-11T16:39:33.400Z,99531.72
2023-04-11T16:41:39.050Z,99521.81
2023-04-11T16:43:41.725Z,99524.72
2023-04-11T16:45:44.848Z,99523.75
2023-04-11T16:47:47.551Z,99521.22
2023-04-11T16:49:50.477Z,99525.94
2023-04-11T16:51:53.219Z,99530.47
2023-04-11T16:53:56.417Z,99522.22
2023-04-11T16:55:59.222Z,99528.06
2023-04-11T16:58:02.343Z,99526.94
2023-04-11T17:00:11.021Z,99529.53
2023-04-11T17:02:13.877Z,99528.41
2023-04-11T17:04:16.860Z,99536.66
2023-04-11T17:06:19.855Z,99530.00
2023-04-11T17:08:22.503Z,99533.28
2023-04-11T17:10:25.175Z,99526.13
2023-04-11T17:12:28.398Z,99532.91
2023-04-11T17:14:35.117Z,99537.88
2023-04-11T17:16:37.897Z,99537.56
2023-04-11T17:18:41.201Z,99535.47
2023-04-11T17:20:46.534Z,99530.47
2023-04-11T17:22:50.898Z,99521.59
2023-04-11T17:24:53.950Z,99524.34
2023-04-11T17:26:57.228Z,99528.91
2023-04-11T17:29:00.178Z,99521.63
2023-04-11T17:31:12.017Z,99527.63
2023-04-11T17:33:18.445Z,99520.38
2023-04-11T17:35:23.055Z,99512.97
2023-04-11T17:37:25.851Z,99515.22
2023-04-11T17:39:28.567Z,99512.16
2023-04-11T17:41:31.232Z,99512.47
2023-04-11T17:43:33.993Z,99516.38
2023-04-11T17:45:37.373Z,99518.16
2023-04-11T17:47:43.275Z,99511.84
2023-04-11T17:49:46.384Z,99506.66
2023-04-11T17:51:58.147Z,99515.22
2023-04-11T17:54:02.294Z,99518.47
2023-04-11T17:56:06.246Z,99522.97
2023-04-11T17:58:09.113Z,99514.91
2023-04-11T18:00:18.183Z,99517.97
2023-04-11T18:02:21.104Z,99517.97
2023-04-11T18:04:24.065Z,99514.25
2023-04-11T18:06:30.039Z,99509.91
2023-04-11T18:08:49.001Z,99514.91
2023-04-11T18:10:53.082Z,99508.94
2023-04-11T18:12:57.691Z,99504.59
2023-04-11T18:15:00.504Z,99505.56
2023-04-11T18:17:03.573Z,99508.31
2023-04-11T18:19:06.477Z,99497.00
2023-04-11T18:21:09.160Z,99497.00
2023-04-11T18:23:12.231Z,99497.97
2023-04-11T18:25:15.445Z,99492.66
2023-04-11T18:27:18.076Z,99492.31
2023-04-11T18:29:20.821Z,99492.66
2023-04-11T18:31:23.609Z,99488.59
2023-04-11T18:33:26.367Z,99490.06
2023-04-11T18:35:29.154Z,99486.03
2023-04-11T18:37:32.493Z,99483.13
2023-04-11T18:39:35.298Z,99474.56
2023-04-11T18:41:38.237Z,99475.84
2023-04-11T18:43:41.121Z,99478.59
2023-04-11T18:45:45.077Z,99463.25
2023-04-11T18:47:48.285Z,99472.16
2023-04-11T18:49:51.340Z,99470.53
2023-04-11T18:51:54.056Z,99466.50
2023-04-11T18:53:56.870Z,99467.16
2023-04-11T18:56:03.277Z,99468.94
2023-04-11T18:58:08.965Z,99456.81
2023-04-11T19:00:18.648Z,99460.22
2023-04-11T19:02:22.029Z,99439.03
2023-04-11T19:04:25.547Z,99454.22
2023-04-11T19:06:28.582Z,99453.25
2023-04-11T19:08:31.305Z,99455.00
2023-04-11T19:10:33.994Z,99449.69
2023-04-11T19:12:37.454Z,99447.28
2023-04-11T19:14:40.162Z,99457.78
2023-04-11T19:16:44.382Z,99452.91
2023-04-11T19:18:47.078Z,99450.28
2023-04-11T19:20:49.847Z,99452.22
2023-04-11T19:22:52.895Z,99459.22
2023-04-11T19:24:55.559Z,99447.75
2023-04-11T19:26:58.335Z,99457.59
2023-04-11T19:29:01.280Z,99456.97
2023-04-11T19:31:03.941Z,99451.13
2023-04-11T19:33:06.724Z,99460.84
2023-04-11T19:35:10.686Z,99461.34
2023-04-11T19:37:14.191Z,99460.84
2023-04-11T19:39:16.822Z,99463.25
2023-04-11T19:41:20.178Z,99456.31
2023-04-11T19:43:23.045Z,99450.19
2023-04-11T19:45:25.835Z,99458.91
2023-04-11T19:47:28.856Z,99461.19
2023-04-11T19:49:31.549Z,99475.38
2023-04-11T19:51:34.422Z,99459.25
2023-04-11T19:53:41.057Z,99461.63
2023-04-11T19:55:45.653Z,99466.03
2023-04-11T19:57:48.399Z,99464.38
2023-04-11T19:59:51.215Z,99461.19
2023-04-11T20:01:54.472Z,99458.75
2023-04-11T20:03:57.463Z,99459.06
2023-04-11T20:06:00.555Z,99462.16
2023-04-11T20:08:03.229Z,99467.97
2023-04-11T20:10:08.043Z,99462.63
2023-04-11T20:12:10.781Z,99462.44
2023-04-11T20:14:13.483Z,99442.03
2023-04-11T20:16:17.297Z,99456.63
2023-04-11T20:18:19.959Z,99452.09
2023-04-11T20:20:25.760Z,99456.25
2023-04-11T20:22:28.608Z,99459.66
2023-04-11T20:24:31.262Z,99456.44
2023-04-11T20:26:33.914Z,99452.38
2023-04-11T20:28:36.920Z,99458.03
2023-04-11T20:30:39.777Z,99454.31
2023-04-11T20:32:43.887Z,99457.06
2023-04-11T20:34:46.641Z,99456.25
2023-04-11T20:36:49.299Z,99472.38
2023-04-11T20:38:52.020Z,99466.09
2023-04-11T20:40:54.669Z,99456.75
2023-04-11T20:43:00.314Z,99469.03
2023-04-11T20:45:13.702Z,99464.63
2023-04-11T20:47:16.574Z,99468.03
2023-04-11T20:49:19.825Z,99471.59
2023-04-11T20:51:22.643Z,99465.44
2023-04-11T20:53:26.862Z,99467.56
2023-04-11T20:55:30.778Z,99469.16
2023-04-11T20:57:35.960Z,99455.78
2023-04-11T20:59:39.405Z,99457.88
2023-04-11T21:01:42.525Z,99460.44
2023-04-11T21:03:47.099Z,99453.84
2023-04-11T21:05:50.285Z,99456.91
2023-04-11T21:07:55.795Z,99454.47
2023-04-11T21:09:58.676Z,99455.09
2023-04-11T21:12:02.527Z,99442.69
2023-04-11T21:14:06.909Z,99444.44
2023-04-11T21:16:10.123Z,99442.47
2023-04-11T21:18:12.958Z,99441.03
2023-04-11T21:20:18.758Z,99434.34
2023-04-11T21:22:21.932Z,99434.00
2023-04-11T21:24:24.683Z,99437.25
2023-04-11T21:26:27.386Z,99442.25
2023-04-11T21:28:30.931Z,99436.56
2023-04-11T21:30:33.618Z,99437.34
2023-04-11T21:32:36.588Z,99438.28
2023-04-11T21:34:39.226Z,99442.28
2023-04-11T21:36:41.884Z,99435.81
2023-04-11T21:38:44.604Z,99446.31
2023-04-11T21:40:47.343Z,99445.31
2023-04-11T21:42:50.061Z,99445.13
2023-04-11T21:44:52.681Z,99436.75
2023-04-11T21:46:55.540Z,99438.78
2023-04-11T21:48:58.620Z,99441.88
2023-04-11T21:51:03.614Z,99436.19
2023-04-11T21:53:06.502Z,99439.88
2023-04-11T21:55:10.007Z,99437.75
2023-04-11T21:57:12.893Z,99436.97
2023-04-11T21:59:15.600Z,99438.69
2023-04-11T22:01:20.908Z,99433.34
2023-04-11T22:03:24.451Z,99429.59
2023-04-11T22:05:27.698Z,99434.88
2023-04-11T22:07:39.134Z,99437.16
2023-04-11T22:09:47.783Z,99430.97
2023-04-11T22:11:51.097Z,99441.44
2023-04-11T22:13:53.974Z,99436.88
2023-04-11T22:16:05.250Z,99436.09
2023-04-11T22:18:11.623Z,99442.19
2023-04-11T22:20:16.674Z,99434.09
2023-04-11T22:22:19.390Z,99433.91
2023-04-11T22:24:31.150Z,99431.47
2023-04-11T22:26:36.736Z,99426.25
2023-04-11T22:28:39.469Z,99432.22
2023-04-11T22:30:44.296Z,99432.84
2023-04-11T22:32:47.123Z,99433.97
2023-04-11T22:34:50.324Z,99431.03
2023-04-11T22:36:53.147Z,99430.00
2023-04-11T22:38:55.830Z,99429.81
2023-04-11T22:40:58.449Z,99427.19
2023-04-11T22:43:02.906Z,99432.16
2023-04-11T22:45:06.298Z,99415.34
2023-04-11T22:47:12.233Z,99423.38
2023-04-11T22:49:15.925Z,99420.66
2023-04-11T22:51:18.633Z,99432.69
2023-04-11T22:53:22.195Z,99424.59
2023-04-11T22:55:25.154Z,99429.56
2023-04-11T22:57:27.801Z,99430.19
2023-04-11T22:59:30.837Z,99429.69
2023-04-11T23:01:33.806Z,99429.19
2023-04-11T23:03:36.767Z,99419.97
2023-04-11T23:05:42.863Z,99423.31
2023-04-11T23:07:46.571Z,99434.59
2023-04-11T23:09:49.206Z,99428.59
2023-04-11T23:11:52.520Z,99422.91
2023-04-11T23:13:55.210Z,99435.28
2023-04-11T23:16:00.861Z,99424.44
2023-04-11T23:18:03.698Z,99430.22
2023-04-11T23:20:14.404Z,99432.44
2023-04-11T23:22:17.381Z,99423.25
2023-04-11T23:24:20.056Z,99423.03
2023-04-11T23:26:25.743Z,99429.41
2023-04-11T23:28:28.518Z,99434.09
2023-04-11T23:30:31.322Z,99420.19
2023-04-11T23:32:34.703Z,99428.09
2023-04-11T23:34:37.438Z,99426.78
2023-04-11T23:36:40.088Z,99431.75
2023-04-11T23:38:43.008Z,99424.16
2023-04-11T23:40:46.124Z,99427.53
2023-04-11T23:42:48.961Z,99429.94
2023-04-11T23:44:52.007Z,99432.97
2023-04-11T23:46:54.650Z,99432.16
2023-04-11T23:48:57.508Z,99434.69
2023-04-11T23:51:00.141Z,99436.63
2023-04-11T23:53:02.783Z,99430.13
2023-04-11T23:55:05.961Z,99433.16
2023-04-11T23:57:08.651Z,99433.47
2023-04-11T23:59:11.526Z,99434.88
